Terminal Aerodrome Forecast
Issued by NWS

Home | Current Version | Previous Version | Text Only | Print | Product List | Glossary On
Versions: 1 2 3 4 5 6 7 8 9 10 11 12 13 14 15 16 17 18 19 20 21 22 23 24 25 26 27 28 29 30 31 32 33
000
FTUS46 KEKA 251124
TAFCEC
TAF
KCEC 251124Z 2512/2612 VRB03KT 6SM BR VCSH OVC005
     FM251400 VRB03KT 6SM -SHRA VCTS SCT005 BKN008 OVC015CB
     FM251800 17004KT 6SM BR VCTS SCT010 OVC020CB
     FM252200 31011KT 6SM BR VCTS SCT015 BKN025 BKN040CB
     FM260300 33009KT 5SM BR OVC010
     FM260800 33007KT 6SM BR BKN025=

USA.gov is the U.S. government's official web portal to all federal, state and local government web resources and services.